createdAt,value
2018-11-26T00:00:44.363Z,101454.66
2018-11-26T00:01:46.456Z,101452.45
2018-11-26T00:02:48.814Z,101451.21
2018-11-26T00:03:51.425Z,101449.59
2018-11-26T00:04:53.545Z,101449.64
2018-11-26T00:05:55.695Z,101453.77
2018-11-26T00:06:57.854Z,101449.67
2018-11-26T00:07:59.873Z,101448.20
2018-11-26T00:09:02.069Z,101451.56
2018-11-26T00:10:03.836Z,101456.23
2018-11-26T00:11:06.606Z,101448.80
2018-11-26T00:12:08.361Z,101449.56
2018-11-26T00:13:10.736Z,101450.70
2018-11-26T00:14:12.508Z,101451.63
2018-11-26T00:15:15.216Z,101454.45
2018-11-26T00:16:16.964Z,101456.09
2018-11-26T00:17:18.723Z,101449.42
2018-11-26T00:18:20.506Z,101447.73
2018-11-26T00:19:22.296Z,101449.42
2018-11-26T00:20:24.055Z,101449.60
2018-11-26T00:21:25.826Z,101448.30
2018-11-26T00:22:27.587Z,101450.91
2018-11-26T00:23:29.362Z,101446.08
2018-11-26T00:24:31.156Z,101447.22
2018-11-26T00:25:32.910Z,101447.59
2018-11-26T00:26:34.673Z,101447.59
2018-11-26T00:27:36.466Z,101448.36
2018-11-26T00:28:38.216Z,101442.98
2018-11-26T00:29:40.010Z,101443.74
2018-11-26T00:30:41.770Z,101448.03
2018-11-26T00:31:43.574Z,101445.42
2018-11-26T00:32:45.340Z,101448.95
2018-11-26T00:33:47.098Z,101451.02
2018-11-26T00:34:48.877Z,101454.37
2018-11-26T00:35:50.645Z,101449.17
2018-11-26T00:36:52.402Z,101452.53
2018-11-26T00:37:54.190Z,101447.16
2018-11-26T00:38:56.042Z,101453.83
2018-11-26T00:39:57.844Z,101448.08
2018-11-26T00:40:59.602Z,101445.31
2018-11-26T00:42:01.358Z,101454.43
2018-11-26T00:43:03.112Z,101450.52
2018-11-26T00:44:04.892Z,101447.92
2018-11-26T00:45:06.675Z,101451.63
2018-11-26T00:46:08.433Z,101446.80
2018-11-26T00:47:10.208Z,101452.01
2018-11-26T00:48:11.986Z,101443.65
2018-11-26T00:49:13.738Z,101447.17
2018-11-26T00:50:15.528Z,101443.65
2018-11-26T00:51:17.284Z,101442.34
2018-11-26T00:52:19.112Z,101444.41
2018-11-26T00:53:20.862Z,101443.11
2018-11-26T00:54:22.622Z,101444.25
2018-11-26T00:55:24.429Z,101439.04
2018-11-26T00:56:26.188Z,101442.56
2018-11-26T00:57:28.040Z,101438.88
2018-11-26T00:58:29.808Z,101442.02
2018-11-26T00:59:31.618Z,101440.17
2018-11-26T01:00:33.391Z,101437.95
2018-11-26T01:01:35.138Z,101440.17
2018-11-26T01:02:37.399Z,101441.48
2018-11-26T01:03:39.177Z,101437.57
2018-11-26T01:04:40.944Z,101437.79
2018-11-26T01:05:42.941Z,101437.03
2018-11-26T01:06:44.698Z,101438.71
2018-11-26T01:07:46.460Z,101438.55
2018-11-26T01:08:48.220Z,101437.24
2018-11-26T01:09:49.978Z,101436.32
2018-11-26T01:10:51.767Z,101437.63
2018-11-26T01:11:53.536Z,101434.48
2018-11-26T01:12:55.340Z,101440.61
2018-11-26T01:13:57.098Z,101438.38
2018-11-26T01:14:58.861Z,101432.25
2018-11-26T01:16:00.657Z,101433.55
2018-11-26T01:17:02.420Z,101439.69
2018-11-26T01:18:05.102Z,101436.16
2018-11-26T01:19:08.071Z,101433.17
2018-11-26T01:20:11.044Z,101431.13
2018-11-26T01:21:21.111Z,101429.06
2018-11-26T01:22:31.269Z,101432.44
2018-11-26T01:23:41.515Z,101436.87
2018-11-26T01:24:50.016Z,101437.27
2018-11-26T01:25:59.656Z,101430.20
2018-11-26T01:27:09.847Z,101434.49
2018-11-26T01:28:20.397Z,101436.17
2018-11-26T01:29:22.701Z,101438.40
2018-11-26T01:30:24.459Z,101439.32
2018-11-26T01:31:26.210Z,101437.86
2018-11-26T01:32:27.989Z,101439.16
2018-11-26T01:33:29.772Z,101439.54
2018-11-26T01:34:32.053Z,101444.36
2018-11-26T01:35:33.809Z,101443.06
2018-11-26T01:36:35.604Z,101442.14
2018-11-26T01:37:37.394Z,101438.99
2018-11-26T01:38:39.169Z,101448.65
2018-11-26T01:39:40.963Z,101445.12
2018-11-26T01:40:49.166Z,101439.38
2018-11-26T01:41:50.943Z,101440.30
2018-11-26T01:42:52.723Z,101444.58
2018-11-26T01:43:54.501Z,101440.13
2018-11-26T01:44:56.275Z,101439.75
2018-11-26T01:45:58.087Z,101445.72
2018-11-26T01:46:59.842Z,101440.89
2018-11-26T01:48:01.613Z,101447.40
2018-11-26T01:49:03.368Z,101447.40
2018-11-26T01:50:05.142Z,101455.21
2018-11-26T01:51:06.904Z,101447.78
2018-11-26T01:52:08.656Z,101448.70
2018-11-26T01:53:10.445Z,101452.06
2018-11-26T01:54:12.215Z,101452.98
2018-11-26T01:55:13.981Z,101455.59
2018-11-26T01:56:15.749Z,101455.97
2018-11-26T01:57:17.543Z,101456.73
2018-11-26T01:58:19.319Z,101456.73
2018-11-26T01:59:21.093Z,101459.70
2018-11-26T02:00:23.427Z,101458.95
2018-11-26T02:01:24.668Z,101462.31
2018-11-26T02:02:26.431Z,101462.31
2018-11-26T02:03:28.493Z,101458.24
2018-11-26T02:04:30.248Z,101461.77
2018-11-26T02:05:32.014Z,101467.36
2018-11-26T02:06:33.761Z,101461.77
2018-11-26T02:07:35.603Z,101458.24
2018-11-26T02:08:37.867Z,101458.24
2018-11-26T02:09:39.635Z,101455.81
2018-11-26T02:10:41.383Z,101455.09
2018-11-26T02:11:43.182Z,101451.91
2018-11-26T02:12:44.926Z,101454.14
2018-11-26T02:13:46.729Z,101449.31
2018-11-26T02:14:48.479Z,101446.70
2018-11-26T02:15:50.221Z,101445.02
2018-11-26T02:16:51.977Z,101440.58
2018-11-26T02:17:53.737Z,101446.33
2018-11-26T02:18:55.511Z,101443.18
2018-11-26T02:19:57.273Z,101433.14
2018-11-26T02:20:59.042Z,101439.66
2018-11-26T02:22:00.787Z,101437.05
2018-11-26T02:23:02.584Z,101430.00
2018-11-26T02:24:04.362Z,101437.05
2018-11-26T02:25:06.125Z,101443.02
2018-11-26T02:26:07.871Z,101436.89
2018-11-26T02:27:09.639Z,101439.11
2018-11-26T02:28:11.431Z,101441.71
2018-11-26T02:29:13.199Z,101447.67
2018-11-26T02:30:14.964Z,101444.15
2018-11-26T02:31:16.711Z,101449.91
2018-11-26T02:32:18.459Z,101441.92
2018-11-26T02:33:20.200Z,101449.36
2018-11-26T02:34:21.997Z,101440.63
2018-11-26T02:35:23.754Z,101444.53
2018-11-26T02:36:25.513Z,101443.77
2018-11-26T02:37:27.260Z,101443.23
2018-11-26T02:38:29.021Z,101439.70
2018-11-26T02:39:30.808Z,101446.75
2018-11-26T02:40:34.213Z,101443.61
2018-11-26T02:41:35.963Z,101439.54
2018-11-26T02:42:37.716Z,101443.44
2018-11-26T02:43:39.483Z,101444.74
2018-11-26T02:44:41.265Z,101436.94
2018-11-26T02:45:43.025Z,101447.34
2018-11-26T02:46:44.773Z,101443.28
2018-11-26T02:47:46.527Z,101443.82
2018-11-26T02:48:48.278Z,101456.63
2018-11-26T02:49:50.059Z,101452.93
2018-11-26T02:50:51.821Z,101448.48
2018-11-26T02:51:53.566Z,101441.98
2018-11-26T02:52:55.314Z,101448.11
2018-11-26T02:53:57.061Z,101445.50
2018-11-26T02:54:58.843Z,101449.03
2018-11-26T02:56:00.617Z,101443.28
2018-11-26T02:57:02.387Z,101443.66
2018-11-26T02:58:04.142Z,101442.36
2018-11-26T02:59:05.916Z,101439.20
2018-11-26T03:00:07.719Z,101442.19
2018-11-26T03:01:09.474Z,101439.59
2018-11-26T03:02:11.203Z,101440.89
2018-11-26T03:03:12.970Z,101437.36
2018-11-26T03:04:14.732Z,101438.83
2018-11-26T03:05:16.517Z,101440.13
2018-11-26T03:06:18.279Z,101434.00
2018-11-26T03:07:20.017Z,101438.28
2018-11-26T03:08:21.790Z,101437.36
2018-11-26T03:09:23.535Z,101435.68
2018-11-26T03:10:25.342Z,101434.38
2018-11-26T03:11:27.109Z,101437.36
2018-11-26T03:12:28.866Z,101431.23
2018-11-26T03:13:30.622Z,101429.93
2018-11-26T03:14:32.369Z,101428.09
2018-11-26T03:15:34.135Z,101427.13
2018-11-26T03:16:35.899Z,101424.52
2018-11-26T03:17:37.653Z,101429.39
2018-11-26T03:18:39.418Z,101429.39
2018-11-26T03:19:41.210Z,101417.47
2018-11-26T03:20:42.980Z,101423.22
2018-11-26T03:21:44.740Z,101418.77
2018-11-26T03:22:46.494Z,101418.39
2018-11-26T03:23:48.248Z,101419.70
2018-11-26T03:24:50.005Z,101414.11
2018-11-26T03:25:51.785Z,101418.77
2018-11-26T03:26:59.498Z,101419.16
2018-11-26T03:28:01.264Z,101411.34
2018-11-26T03:29:03.036Z,101414.88
2018-11-26T03:30:04.794Z,101415.25
2018-11-26T03:31:06.580Z,101417.47
2018-11-26T03:32:08.334Z,101414.70
2018-11-26T03:33:10.110Z,101419.70
2018-11-26T03:34:11.888Z,101415.25
2018-11-26T03:35:13.654Z,101418.77
2018-11-26T03:36:15.484Z,101419.16
2018-11-26T03:37:17.224Z,101417.09
2018-11-26T03:38:18.968Z,101417.47
2018-11-26T03:39:20.715Z,101416.55
2018-11-26T03:40:22.464Z,101408.95
2018-11-26T03:41:24.250Z,101418.98
2018-11-26T03:42:26.016Z,101416.00
2018-11-26T03:43:27.780Z,101411.56
2018-11-26T03:44:29.538Z,101418.98
2018-11-26T03:45:31.316Z,101419.37
2018-11-26T03:46:33.098Z,101414.16
2018-11-26T03:47:34.866Z,101413.78
2018-11-26T03:48:36.628Z,101412.31
2018-11-26T03:49:38.850Z,101419.75
2018-11-26T03:50:40.596Z,101417.52
2018-11-26T03:51:42.382Z,101421.05
2018-11-26T03:52:44.138Z,101416.22
2018-11-26T03:53:45.896Z,101416.77
2018-11-26T03:54:47.664Z,101416.59
2018-11-26T03:55:49.428Z,101419.20
2018-11-26T03:56:51.212Z,101416.05
2018-11-26T03:57:54.413Z,101422.19
2018-11-26T03:58:56.173Z,101425.16
2018-11-26T03:59:57.919Z,101419.04
2018-11-26T04:00:59.696Z,101421.27
2018-11-26T04:02:02.795Z,101425.55
2018-11-26T04:03:04.642Z,101420.34
2018-11-26T04:04:06.406Z,101421.64
2018-11-26T04:05:08.172Z,101425.92
2018-11-26T04:06:09.948Z,101422.94
2018-11-26T04:07:11.719Z,101421.64
2018-11-26T04:08:13.490Z,101422.56
2018-11-26T04:09:15.239Z,101425.55
2018-11-26T04:10:16.980Z,101419.42
2018-11-26T04:11:18.725Z,101421.85
2018-11-26T04:12:20.522Z,101423.70
2018-11-26T04:13:22.304Z,101423.16
2018-11-26T04:14:24.060Z,101427.98
2018-11-26T04:15:25.807Z,101421.85
2018-11-26T04:16:27.577Z,101417.95
2018-11-26T04:17:29.361Z,101419.25
2018-11-26T04:18:31.114Z,101424.45
2018-11-26T04:19:32.874Z,101418.33
2018-11-26T04:20:34.623Z,101415.19
2018-11-26T04:21:36.401Z,101420.94
2018-11-26T04:22:38.247Z,101418.70
2018-11-26T04:23:39.990Z,101420.77
2018-11-26T04:24:41.743Z,101426.14
2018-11-26T04:25:43.522Z,101425.22
2018-11-26T04:26:45.272Z,101424.67
2018-11-26T04:27:47.047Z,101424.67
2018-11-26T04:28:48.789Z,101426.52
2018-11-26T04:29:50.540Z,101433.40
2018-11-26T04:30:52.307Z,101438.60
2018-11-26T04:31:54.078Z,101427.27
2018-11-26T04:32:55.860Z,101431.17
2018-11-26T04:33:57.611Z,101428.41
2018-11-26T04:34:59.383Z,101430.63
2018-11-26T04:36:01.137Z,101436.38
2018-11-26T04:37:02.895Z,101438.98
2018-11-26T04:38:04.640Z,101434.70
2018-11-26T04:39:06.413Z,101433.78
2018-11-26T04:40:08.161Z,101433.23
2018-11-26T04:41:09.909Z,101429.70
2018-11-26T04:42:11.667Z,101432.09
2018-11-26T04:43:13.435Z,101430.63
2018-11-26T04:44:15.240Z,101435.84
2018-11-26T04:45:17.013Z,101428.95
2018-11-26T04:46:18.785Z,101437.14
2018-11-26T04:47:20.536Z,101429.70
2018-11-26T04:48:22.324Z,101437.14
2018-11-26T04:49:24.081Z,101436.22
2018-11-26T04:50:25.850Z,101433.95
2018-11-26T04:51:27.603Z,101437.52
2018-11-26T04:52:29.346Z,101435.26
2018-11-26T04:53:31.118Z,101436.02
2018-11-26T04:54:32.873Z,101437.31
2018-11-26T04:55:34.627Z,101441.59
2018-11-26T04:56:36.389Z,101446.97
2018-11-26T04:57:42.169Z,101438.07
2018-11-26T04:58:39.962Z,101441.97
2018-11-26T04:59:41.707Z,101443.27
2018-11-26T05:00:43.457Z,101439.38
2018-11-26T05:01:45.221Z,101442.89
2018-11-26T05:02:46.982Z,101440.67
2018-11-26T05:03:48.750Z,101442.73
2018-11-26T05:04:51.516Z,101441.97
2018-11-26T05:05:53.275Z,101444.95
2018-11-26T05:06:55.035Z,101444.41
2018-11-26T05:07:56.793Z,101444.41
2018-11-26T05:08:58.571Z,101448.69
2018-11-26T05:10:00.315Z,101450.53
2018-11-26T05:11:02.067Z,101449.23
2018-11-26T05:12:03.827Z,101451.45
2018-11-26T05:13:05.581Z,101450.53
2018-11-26T05:14:07.631Z,101449.23
2018-11-26T05:15:09.386Z,101450.91
2018-11-26T05:16:15.605Z,101445.71
2018-11-26T05:17:17.359Z,101449.99
2018-11-26T05:18:19.117Z,101451.67
2018-11-26T05:19:20.915Z,101444.78
2018-11-26T05:20:22.678Z,101448.14
2018-11-26T05:21:24.443Z,101454.27
2018-11-26T05:22:26.195Z,101452.97
2018-11-26T05:23:27.966Z,101452.97
2018-11-26T05:24:29.735Z,101457.25
2018-11-26T05:25:31.476Z,101458.55
2018-11-26T05:26:33.234Z,101456.87
2018-11-26T05:27:34.979Z,101454.66
2018-11-26T05:28:36.805Z,101457.63
2018-11-26T05:29:38.596Z,101460.23
2018-11-26T05:30:40.349Z,101455.41
2018-11-26T05:31:42.104Z,101457.63
2018-11-26T05:32:45.255Z,101460.98
2018-11-26T05:33:47.017Z,101455.78
2018-11-26T05:34:48.795Z,101449.66
2018-11-26T05:35:51.730Z,101453.73
2018-11-26T05:36:53.502Z,101446.84
2018-11-26T05:37:55.245Z,101446.13
2018-11-26T05:38:57.010Z,101450.95
2018-11-26T05:39:58.780Z,101450.41
2018-11-26T05:41:00.544Z,101450.58
2018-11-26T05:42:02.639Z,101448.73
2018-11-26T05:43:04.391Z,101445.75
2018-11-26T05:44:06.153Z,101443.53
2018-11-26T05:45:07.970Z,101446.52
2018-11-26T05:46:09.734Z,101447.81
2018-11-26T05:47:11.522Z,101445.59
2018-11-26T05:48:13.293Z,101452.64
2018-11-26T05:49:15.034Z,101447.81
2018-11-26T05:50:16.784Z,101455.24
2018-11-26T05:51:18.553Z,101446.13
2018-11-26T05:52:20.311Z,101446.52
2018-11-26T05:53:22.067Z,101445.59
2018-11-26T05:54:23.814Z,101445.97
2018-11-26T05:55:25.571Z,101446.89
2018-11-26T05:56:27.323Z,101448.27
2018-11-26T05:57:29.095Z,101437.52
2018-11-26T05:58:30.874Z,101444.74
2018-11-26T05:59:32.626Z,101446.25
2018-11-26T06:00:35.276Z,101441.27
2018-11-26T06:01:37.056Z,101446.30
2018-11-26T06:02:38.836Z,101443.53
2018-11-26T06:03:40.585Z,101440.38
2018-11-26T06:04:42.333Z,101440.77
2018-11-26T06:05:44.092Z,101445.42
2018-11-26T06:06:45.947Z,101445.42
2018-11-26T06:07:48.439Z,101433.92
2018-11-26T06:08:50.186Z,101435.22
2018-11-26T06:09:51.944Z,101437.07
2018-11-26T06:10:53.718Z,101439.67
2018-11-26T06:11:55.525Z,101443.03
2018-11-26T06:12:57.278Z,101438.17
2018-11-26T06:13:59.054Z,101439.47
2018-11-26T06:15:00.850Z,101436.87
2018-11-26T06:16:02.625Z,101441.53
2018-11-26T06:17:04.392Z,101436.33
2018-11-26T06:18:06.160Z,101440.23
2018-11-26T06:19:07.905Z,101444.67
2018-11-26T06:20:09.653Z,101444.13
2018-11-26T06:21:11.404Z,101447.66
2018-11-26T06:22:13.180Z,101445.05
2018-11-26T06:23:14.929Z,101445.81
2018-11-26T06:24:16.711Z,101448.03
2018-11-26T06:25:18.493Z,101444.89
2018-11-26T06:26:20.256Z,101448.41
2018-11-26T06:27:22.032Z,101448.41
2018-11-26T06:28:23.782Z,101450.09
2018-11-26T06:29:25.544Z,101452.31
2018-11-26T06:30:27.319Z,101452.69
2018-11-26T06:31:29.072Z,101451.39
2018-11-26T06:32:30.861Z,101453.62
2018-11-26T06:33:32.632Z,101452.69
2018-11-26T06:34:34.390Z,101455.67
2018-11-26T06:35:36.145Z,101450.84
2018-11-26T06:36:37.912Z,101455.67
2018-11-26T06:37:39.709Z,101452.52
2018-11-26T06:38:41.484Z,101457.73
2018-11-26T06:39:43.250Z,101456.05
2018-11-26T06:40:45.394Z,101459.95
2018-11-26T06:41:47.146Z,101457.73
2018-11-26T06:42:48.924Z,101463.69
2018-11-26T06:43:50.698Z,101456.64
2018-11-26T06:44:52.478Z,101456.80
2018-11-26T06:45:54.232Z,101458.48
2018-11-26T06:46:56.323Z,101455.88
2018-11-26T06:47:58.095Z,101455.88
2018-11-26T06:48:59.850Z,101454.20
2018-11-26T06:50:02.216Z,101454.03
2018-11-26T06:51:05.293Z,101456.80
2018-11-26T06:52:07.139Z,101452.91
2018-11-26T06:53:08.919Z,101454.03
2018-11-26T06:54:10.686Z,101453.66
2018-11-26T06:55:12.459Z,101453.28
2018-11-26T06:56:14.233Z,101457.94
2018-11-26T06:57:16.036Z,101456.27
2018-11-26T06:58:17.805Z,101455.34
2018-11-26T06:59:19.578Z,101463.14
2018-11-26T07:00:21.630Z,101462.77
2018-11-26T07:01:23.380Z,101464.44
2018-11-26T07:02:25.149Z,101464.82
2018-11-26T07:03:26.914Z,101470.95
2018-11-26T07:04:28.725Z,101467.42
2018-11-26T07:05:30.501Z,101473.00
2018-11-26T07:06:32.269Z,101471.70
2018-11-26T07:07:34.044Z,101474.30
2018-11-26T07:08:35.816Z,101471.32
2018-11-26T07:09:37.589Z,101476.53
2018-11-26T07:10:39.350Z,101477.28
2018-11-26T07:11:41.101Z,101478.20
2018-11-26T07:12:43.011Z,101478.58
2018-11-26T07:13:44.780Z,101484.16
2018-11-26T07:14:46.549Z,101482.48
2018-11-26T07:15:48.319Z,101483.41
2018-11-26T07:16:50.100Z,101475.06
2018-11-26T07:17:51.928Z,101476.73
2018-11-26T07:18:53.702Z,101481.02
2018-11-26T07:19:55.478Z,101481.94
2018-11-26T07:20:57.261Z,101485.84
2018-11-26T07:21:59.045Z,101481.94
2018-11-26T07:23:00.826Z,101481.02
2018-11-26T07:24:02.593Z,101476.19
2018-11-26T07:25:04.369Z,101484.16
2018-11-26T07:26:06.128Z,101481.94
2018-11-26T07:27:07.888Z,101486.97
2018-11-26T07:28:09.664Z,101483.23
2018-11-26T07:29:11.436Z,101488.45
2018-11-26T07:30:13.212Z,101481.77
2018-11-26T07:31:14.977Z,101484.75
2018-11-26T07:32:17.085Z,101486.97
2018-11-26T07:33:18.870Z,101483.62
2018-11-26T07:34:20.666Z,101479.17
2018-11-26T07:35:22.421Z,101482.31
2018-11-26T07:36:24.207Z,101485.30
2018-11-26T07:37:26.003Z,101483.07
2018-11-26T07:38:27.755Z,101481.39
2018-11-26T07:39:29.520Z,101479.92
2018-11-26T07:40:31.283Z,101481.60
2018-11-26T07:41:33.035Z,101477.87
2018-11-26T07:42:34.829Z,101481.22
2018-11-26T07:43:36.629Z,101482.53
2018-11-26T07:44:38.384Z,101481.60
2018-11-26T07:45:40.180Z,101488.66
2018-11-26T07:46:41.981Z,101494.23
2018-11-26T07:47:43.743Z,101493.31
2018-11-26T07:48:45.511Z,101495.91
2018-11-26T07:49:47.273Z,101494.23
2018-11-26T07:50:49.035Z,101498.52
2018-11-26T07:51:50.784Z,101498.52
2018-11-26T07:52:52.574Z,101496.28
2018-11-26T07:53:54.332Z,101491.80
2018-11-26T07:54:56.093Z,101498.89
2018-11-26T07:55:57.864Z,101498.30
2018-11-26T07:56:59.626Z,101498.89
2018-11-26T07:58:02.053Z,101499.81
2018-11-26T07:59:03.829Z,101501.48
2018-11-26T08:00:05.606Z,101501.87
2018-11-26T08:01:07.388Z,101502.41
2018-11-26T08:02:09.166Z,101497.97
2018-11-26T08:03:10.977Z,101500.56
2018-11-26T08:04:12.779Z,101502.20
2018-11-26T08:05:14.545Z,101503.17
2018-11-26T08:06:16.316Z,101494.41
2018-11-26T08:07:18.085Z,101497.77
2018-11-26T08:08:19.854Z,101496.66
2018-11-26T08:09:21.621Z,101497.01
2018-11-26T08:10:23.943Z,101495.70
2018-11-26T08:11:25.705Z,101496.45
2018-11-26T08:12:27.487Z,101493.86
2018-11-26T08:13:29.277Z,101492.55
2018-11-26T08:14:31.047Z,101493.31
2018-11-26T08:15:32.824Z,101491.63
2018-11-26T08:16:35.173Z,101494.61
2018-11-26T08:17:36.944Z,101492.39
2018-11-26T08:18:38.946Z,101493.31
2018-11-26T08:19:40.691Z,101495.16
2018-11-26T08:20:42.443Z,101499.44
2018-11-26T08:21:44.210Z,101497.21
2018-11-26T08:22:46.001Z,101497.59
2018-11-26T08:23:47.749Z,101499.81
2018-11-26T08:24:49.562Z,101502.80
2018-11-26T08:25:54.677Z,101504.09
2018-11-26T08:26:57.321Z,101509.67
2018-11-26T08:27:59.131Z,101505.77
2018-11-26T08:29:00.926Z,101508.00
2018-11-26T08:30:02.674Z,101505.94
2018-11-26T08:31:04.448Z,101503.34
2018-11-26T08:32:06.231Z,101505.39
2018-11-26T08:33:08.021Z,101506.70
2018-11-26T08:34:09.789Z,101506.32
2018-11-26T08:35:11.543Z,101506.86
2018-11-26T08:36:13.672Z,101505.56
2018-11-26T08:37:19.915Z,101514.30
2018-11-26T08:38:23.729Z,101511.69
2018-11-26T08:39:30.968Z,101510.77
2018-11-26T08:40:38.292Z,101514.87
2018-11-26T08:41:45.606Z,101512.99
2018-11-26T08:42:51.394Z,101517.48
2018-11-26T08:44:02.772Z,101519.70
2018-11-26T08:45:06.264Z,101516.52
2018-11-26T08:46:08.047Z,101525.83
2018-11-26T08:47:15.307Z,101519.12
2018-11-26T08:48:29.399Z,101523.98
2018-11-26T08:49:31.191Z,101521.37
2018-11-26T08:50:32.956Z,101529.35
2018-11-26T08:51:34.724Z,101520.63
2018-11-26T08:52:36.487Z,101522.68
2018-11-26T08:53:38.264Z,101524.91
2018-11-26T08:54:40.834Z,101524.15
2018-11-26T08:55:43.399Z,101523.22
2018-11-26T08:56:47.179Z,101517.10
2018-11-26T08:57:51.000Z,101520.25
2018-11-26T08:58:55.061Z,101518.40
2018-11-26T08:59:59.066Z,101518.95
2018-11-26T09:01:07.479Z,101516.72
2018-11-26T09:02:11.186Z,101515.22
2018-11-26T09:03:19.502Z,101522.47
2018-11-26T09:05:26.374Z,101519.49
2018-11-26T09:06:30.319Z,101516.34
2018-11-26T09:07:34.239Z,101518.95
2018-11-26T09:08:37.995Z,101519.88
2018-11-26T09:09:41.758Z,101516.34
2018-11-26T09:10:45.914Z,101519.32
2018-11-26T09:11:49.780Z,101516.72
2018-11-26T09:12:53.595Z,101516.34
2018-11-26T09:13:57.329Z,101516.34
2018-11-26T09:14:59.568Z,101510.22
2018-11-26T09:16:02.175Z,101511.52
2018-11-26T09:17:04.482Z,101507.23
2018-11-26T09:18:06.691Z,101507.23
2018-11-26T09:19:09.056Z,101505.02
2018-11-26T09:20:11.615Z,101504.26
2018-11-26T09:21:14.287Z,101502.04
2018-11-26T09:22:16.447Z,101505.94
2018-11-26T09:23:18.724Z,101502.96
2018-11-26T09:24:21.186Z,101503.88
2018-11-26T09:25:23.531Z,101499.81
2018-11-26T09:26:25.845Z,101505.94
2018-11-26T09:27:28.049Z,101509.09
2018-11-26T09:28:29.894Z,101511.52
2018-11-26T09:29:31.730Z,101511.69
2018-11-26T09:30:33.511Z,101511.14
2018-11-26T09:31:35.309Z,101513.37
2018-11-26T09:32:37.098Z,101512.44
2018-11-26T09:33:38.887Z,101509.84
2018-11-26T09:34:40.643Z,101512.81
2018-11-26T09:35:42.511Z,101516.34
2018-11-26T09:36:44.492Z,101517.27
2018-11-26T09:37:46.440Z,101519.70
2018-11-26T09:38:48.224Z,101517.48
2018-11-26T09:39:50.150Z,101523.60
2018-11-26T09:40:52.105Z,101518.40
2018-11-26T09:41:53.941Z,101516.17
2018-11-26T09:42:55.893Z,101520.25
2018-11-26T09:43:57.738Z,101518.56
2018-11-26T09:44:59.667Z,101521.17
2018-11-26T09:46:01.446Z,101518.40
2018-11-26T09:47:03.317Z,101518.02
2018-11-26T09:48:05.159Z,101517.27
2018-11-26T09:49:07.105Z,101514.13
2018-11-26T09:50:08.956Z,101514.13
2018-11-26T09:51:14.328Z,101515.05
2018-11-26T09:52:13.240Z,101511.14
2018-11-26T09:53:15.012Z,101513.37
2018-11-26T09:54:16.938Z,101508.54
2018-11-26T09:55:18.733Z,101505.94
2018-11-26T09:56:20.520Z,101506.86
2018-11-26T09:57:22.333Z,101508.91
2018-11-26T09:58:24.366Z,101507.23
2018-11-26T09:59:26.141Z,101512.06
2018-11-26T10:00:28.002Z,101503.88
2018-11-26T10:01:29.762Z,101508.71
2018-11-26T10:02:31.588Z,101508.33
2018-11-26T10:03:33.379Z,101504.26
2018-11-26T10:04:35.431Z,101504.64
2018-11-26T10:05:37.218Z,101500.36
2018-11-26T10:06:38.997Z,101504.81
2018-11-26T10:07:40.796Z,101502.96
2018-11-26T10:08:42.613Z,101506.48
2018-11-26T10:09:44.403Z,101502.04
2018-11-26T10:10:46.181Z,101505.19
2018-11-26T10:11:47.981Z,101499.06
2018-11-26T10:12:49.809Z,101494.78
2018-11-26T10:13:51.573Z,101499.98
2018-11-26T10:14:53.355Z,101499.06
2018-11-26T10:15:55.150Z,101499.06
2018-11-26T10:16:56.946Z,101495.16
2018-11-26T10:17:58.811Z,101501.66
2018-11-26T10:19:00.653Z,101495.53
2018-11-26T10:20:02.444Z,101498.30
2018-11-26T10:21:04.449Z,101496.25
2018-11-26T10:22:06.232Z,101492.55
2018-11-26T10:23:08.025Z,101493.86
2018-11-26T10:24:09.820Z,101493.48
2018-11-26T10:25:11.760Z,101494.78
2018-11-26T10:26:13.564Z,101497.92
2018-11-26T10:27:15.352Z,101494.02
2018-11-26T10:28:17.165Z,101492.93
2018-11-26T10:29:19.051Z,101490.70
2018-11-26T10:30:21.805Z,101493.86
2018-11-26T10:31:23.587Z,101486.26
2018-11-26T10:32:25.374Z,101495.53
2018-11-26T10:33:27.175Z,101488.66
2018-11-26T10:34:29.095Z,101486.22
2018-11-26T10:35:30.919Z,101486.97
2018-11-26T10:36:32.718Z,101481.22
2018-11-26T10:37:34.544Z,101482.91
2018-11-26T10:38:36.348Z,101484.58
2018-11-26T10:39:38.103Z,101482.70
2018-11-26T10:40:41.200Z,101485.30
2018-11-26T10:41:42.986Z,101485.68
2018-11-26T10:42:44.763Z,101485.30
2018-11-26T10:43:46.597Z,101484.37
2018-11-26T10:44:48.442Z,101489.20
2018-11-26T10:45:50.238Z,101489.95
2018-11-26T10:46:52.044Z,101484.75
2018-11-26T10:47:53.816Z,101487.36
2018-11-26T10:48:56.485Z,101481.05
2018-11-26T10:49:58.252Z,101483.08
2018-11-26T10:51:00.041Z,101485.13
2018-11-26T10:52:01.845Z,101481.77
2018-11-26T10:53:03.866Z,101483.07
2018-11-26T10:54:05.655Z,101478.08
2018-11-26T10:55:07.419Z,101481.05
2018-11-26T10:56:09.205Z,101484.00
2018-11-26T10:57:10.971Z,101481.98
2018-11-26T10:58:12.744Z,101483.66
2018-11-26T10:59:14.541Z,101481.40
2018-11-26T11:00:21.847Z,101481.78
2018-11-26T11:01:28.913Z,101483.45
2018-11-26T11:02:36.195Z,101484.75
2018-11-26T11:03:37.973Z,101483.08
2018-11-26T11:04:39.779Z,101484.20
2018-11-26T11:05:41.767Z,101484.59
2018-11-26T11:06:43.570Z,101484.96
2018-11-26T11:07:45.356Z,101483.66
2018-11-26T11:08:47.126Z,101486.81
2018-11-26T11:09:48.916Z,101486.44
2018-11-26T11:10:50.670Z,101484.20
2018-11-26T11:11:52.441Z,101481.61
2018-11-26T11:12:54.234Z,101487.73
2018-11-26T11:13:56.026Z,101483.83
2018-11-26T11:14:57.810Z,101481.61
2018-11-26T11:15:59.585Z,101482.16
2018-11-26T11:17:01.356Z,101483.83
2018-11-26T11:18:03.136Z,101484.20
2018-11-26T11:19:04.902Z,101481.78
2018-11-26T11:20:06.694Z,101483.83
2018-11-26T11:21:08.473Z,101485.88
2018-11-26T11:22:10.271Z,101488.11
2018-11-26T11:23:12.026Z,101487.73
2018-11-26T11:24:13.782Z,101479.77
2018-11-26T11:25:15.613Z,101481.06
2018-11-26T11:26:17.378Z,101488.48
2018-11-26T11:27:19.151Z,101485.88
2018-11-26T11:28:20.931Z,101486.81
2018-11-26T11:29:22.683Z,101485.51
2018-11-26T11:30:25.929Z,101486.05
2018-11-26T11:31:27.706Z,101483.28
2018-11-26T11:32:29.475Z,101480.85
2018-11-26T11:33:31.293Z,101479.01
2018-11-26T11:34:33.090Z,101481.23
2018-11-26T11:35:34.875Z,101479.01
2018-11-26T11:36:36.645Z,101482.91
2018-11-26T11:37:38.407Z,101482.36
2018-11-26T11:38:40.187Z,101479.77
2018-11-26T11:39:42.013Z,101483.28
2018-11-26T11:40:43.805Z,101484.20
2018-11-26T11:41:45.565Z,101476.78
2018-11-26T11:42:47.328Z,101476.03
2018-11-26T11:43:49.083Z,101478.45
2018-11-26T11:44:51.206Z,101478.45
2018-11-26T11:45:52.788Z,101474.94
2018-11-26T11:46:54.562Z,101478.08
2018-11-26T11:47:56.319Z,101480.69
2018-11-26T11:48:58.081Z,101474.94
2018-11-26T11:49:59.900Z,101471.95